Time;durP1;ratioP1;P1;durP2;ratioP2;P2;SDS_P1;SDS_P2;PMS_P1;PMS_P2;Temp;Humidity;BMP_temperature;BMP_pressure;BME280_temperature;BME280_humidity;BME280_pressure;Samples;Min_cycle;Max_cycle;Signal;HPM_P1;HPM_P2
2023/12/04 00:00:04;;;;;;;66.07;29.07;;;;;;;-0.30;56.88;100901.41;4956551;28;97001;-71
2023/12/04 00:02:38;;;;;;;59.40;27.77;;;;;;;-0.26;56.92;100908.41;4969692;28;97968;-71
2023/12/04 00:05:05;;;;;;;65.83;29.40;;;;;;;-0.34;56.43;100903.91;4973042;28;97973;-71
2023/12/04 00:07:30;;;;;;;50.63;25.43;;;;;;;-0.30;56.90;100911.72;4954543;28;97301;-71
2023/12/04 00:09:56;;;;;;;52.50;24.63;;;;;;;-0.34;56.77;100911.66;4974744;28;96808;-72
2023/12/04 00:12:21;;;;;;;52.70;26.13;;;;;;;-0.35;56.67;100912.47;4971484;28;97407;-71
2023/12/04 00:14:47;;;;;;;51.50;25.27;;;;;;;-0.42;56.56;100900.31;4966944;28;101439;-71
2023/12/04 00:17:12;;;;;;;56.70;28.03;;;;;;;-0.55;56.23;100894.91;4955786;28;99450;-71
2023/12/04 00:19:38;;;;;;;51.80;25.60;;;;;;;-0.50;56.08;100902.72;4972672;28;96939;-71
2023/12/04 00:22:03;;;;;;;56.60;26.83;;;;;;;-0.64;55.88;100901.56;4972113;28;98049;-71
2023/12/04 00:24:29;;;;;;;53.53;25.23;;;;;;;-0.81;56.08;100903.81;4972845;28;97345;-71
2023/12/04 00:26:54;;;;;;;48.83;25.27;;;;;;;-0.69;55.89;100904.94;4956070;28;96780;-71
2023/12/04 00:29:20;;;;;;;47.87;24.13;;;;;;;-0.80;55.81;100910.72;4949135;28;97095;-71
2023/12/04 00:31:45;;;;;;;54.17;25.57;;;;;;;-0.82;55.87;100913.25;4967595;28;97605;-71
2023/12/04 00:34:12;;;;;;;49.80;23.00;;;;;;;-0.78;55.49;100919.34;4972613;28;101018;-71
2023/12/04 00:36:37;;;;;;;44.33;23.77;;;;;;;-0.70;55.48;100925.53;4972296;28;97123;-71
2023/12/04 00:39:03;;;;;;;50.87;24.00;;;;;;;-0.69;55.14;100927.28;4956412;28;96943;-71
2023/12/04 00:41:29;;;;;;;43.60;22.43;;;;;;;-0.91;55.86;100911.34;4959295;28;101138;-71
2023/12/04 00:43:55;;;;;;;46.40;23.13;;;;;;;-0.80;55.76;100924.47;4944647;28;100710;-71
2023/12/04 00:46:20;;;;;;;41.90;21.93;;;;;;;-0.85;55.78;100931.22;4960265;28;96903;-71
2023/12/04 00:48:46;;;;;;;42.40;21.03;;;;;;;-0.85;56.06;100922.63;4980147;28;97448;-71
2023/12/04 00:51:11;;;;;;;34.20;17.83;;;;;;;-0.88;56.67;100926.00;4962336;28;101608;-71
2023/12/04 00:53:37;;;;;;;39.83;19.10;;;;;;;-0.90;56.85;100922.53;4968562;28;97378;-72
2023/12/04 00:56:03;;;;;;;37.77;18.87;;;;;;;-0.83;56.22;100919.25;4970940;28;96884;-71
2023/12/04 00:58:28;;;;;;;47.77;21.57;;;;;;;-0.97;55.75;100923.22;4976786;28;97371;-71
2023/12/04 01:00:54;;;;;;;47.07;20.83;;;;;;;-1.10;55.35;100928.94;4972358;28;97573;-71
2023/12/04 01:03:19;;;;;;;42.73;20.03;;;;;;;-1.07;55.52;100924.72;4972118;28;98542;-71
2023/12/04 01:05:45;;;;;;;43.17;21.20;;;;;;;-0.99;54.86;100930.94;4973179;28;97239;-71
2023/12/04 01:08:10;;;;;;;39.47;20.07;;;;;;;-1.04;55.08;100927.38;4965355;28;96976;-72
2023/12/04 01:10:36;;;;;;;40.50;19.60;;;;;;;-1.12;54.62;100926.31;4976495;28;98040;-71
2023/12/04 01:13:01;;;;;;;45.47;21.43;;;;;;;-1.32;54.82;100922.41;4963067;28;101086;-71
2023/12/04 01:15:27;;;;;;;50.03;24.17;;;;;;;-1.39;54.88;100930.00;4987772;28;98597;-71
2023/12/04 01:17:52;;;;;;;45.73;22.40;;;;;;;-1.37;55.31;100924.88;4956220;28;96871;-71
2023/12/04 01:20:18;;;;;;;48.33;21.07;;;;;;;-1.39;55.34;100924.84;4971263;28;102178;-71
2023/12/04 01:22:43;;;;;;;50.50;24.07;;;;;;;-1.39;55.76;100923.97;4962292;28;101287;-71
2023/12/04 01:25:09;;;;;;;43.60;21.07;;;;;;;-1.50;56.64;100935.72;4961003;28;97261;-71
2023/12/04 01:27:37;;;;;;;39.80;21.07;;;;;;;-1.43;55.65;100938.47;4948281;28;96978;-71
2023/12/04 01:30:05;;;;;;;40.33;20.43;;;;;;;-1.41;55.78;100928.22;4955449;28;101304;-71
2023/12/04 01:32:30;;;;;;;44.20;21.87;;;;;;;-1.42;55.21;100936.78;4954949;28;102054;-71
2023/12/04 01:34:56;;;;;;;42.23;21.20;;;;;;;-1.52;54.80;100940.81;4972052;28;96759;-72
2023/12/04 01:37:21;;;;;;;42.37;21.57;;;;;;;-1.50;54.77;100939.16;4955092;28;96884;-71
2023/12/04 01:39:47;;;;;;;44.03;21.53;;;;;;;-1.53;54.24;100935.66;4953671;28;101707;-71
2023/12/04 01:42:12;;;;;;;45.47;23.47;;;;;;;-1.65;54.42;100939.66;4970555;28;100667;-71
2023/12/04 01:44:38;;;;;;;40.63;20.53;;;;;;;-1.61;54.67;100941.47;4955815;28;97466;-71
2023/12/04 01:47:04;;;;;;;49.47;22.43;;;;;;;-1.59;54.20;100936.34;4969766;28;96945;-71
2023/12/04 01:49:30;;;;;;;44.70;21.73;;;;;;;-1.63;54.68;100931.94;4953714;28;98102;-71
2023/12/04 01:51:56;;;;;;;41.97;20.43;;;;;;;-1.70;54.07;100932.63;4951179;28;97691;-71
2023/12/04 01:54:21;;;;;;;44.57;20.73;;;;;;;-1.64;54.06;100932.78;4969463;28;96892;-72
2023/12/04 01:56:47;;;;;;;45.20;20.47;;;;;;;-1.91;54.24;100909.81;4958431;28;97415;-72
2023/12/04 01:59:12;;;;;;;37.80;19.90;;;;;;;-1.83;54.42;100927.19;4952628;28;99099;-72
2023/12/04 02:01:38;;;;;;;43.87;21.13;;;;;;;-1.96;55.41;100917.38;4963332;28;97447;-72
2023/12/04 02:04:04;;;;;;;39.97;20.33;;;;;;;-2.00;55.27;100927.56;4957899;28;96768;-72
2023/12/04 02:06:29;;;;;;;46.27;22.00;;;;;;;-1.87;54.88;100930.50;4968517;28;96856;-72
2023/12/04 02:08:56;;;;;;;42.87;20.53;;;;;;;-1.96;56.06;100929.38;4966907;28;101773;-72
2023/12/04 02:11:21;;;;;;;41.13;20.40;;;;;;;-2.01;55.77;100926.69;4965256;28;98284;-72
2023/12/04 02:13:47;;;;;;;43.27;22.87;;;;;;;-1.99;55.00;100924.16;4963488;28;96835;-72
2023/12/04 02:16:13;;;;;;;40.07;19.97;;;;;;;-2.12;54.71;100920.41;4951018;28;96969;-72
2023/12/04 02:18:39;;;;;;;41.50;19.07;;;;;;;-2.05;54.95;100919.72;4965180;28;99201;-73
2023/12/04 02:21:05;;;;;;;37.87;20.03;;;;;;;-2.14;54.74;100910.06;4963352;28;97828;-72
2023/12/04 02:23:30;;;;;;;43.67;21.40;;;;;;;-2.01;54.84;100913.81;4952403;28;96901;-72
2023/12/04 02:26:01;;;;;;;47.80;22.10;;;;;;;-1.99;55.11;100925.03;4961439;28;96925;-72
2023/12/04 02:28:32;;;;;;;37.90;20.60;;;;;;;-2.01;54.36;100915.53;4966564;28;101192;-72
2023/12/04 02:30:58;;;;;;;45.90;21.77;;;;;;;-1.95;54.38;100929.44;4958187;28;97774;-72
2023/12/04 02:33:24;;;;;;;44.87;22.23;;;;;;;-2.07;54.31;100917.09;4970261;28;97437;-72
2023/12/04 02:35:50;;;;;;;38.57;19.83;;;;;;;-2.26;54.91;100917.44;4987824;28;97043;-74
2023/12/04 02:38:16;;;;;;;38.20;19.47;;;;;;;-2.34;55.34;100909.50;4970173;28;100945;-72
2023/12/04 02:40:41;;;;;;;41.70;19.43;;;;;;;-2.30;55.52;100913.03;4951612;28;97364;-72
2023/12/04 02:43:07;;;;;;;35.70;18.90;;;;;;;-2.54;56.68;100913.22;4969754;28;96709;-72
2023/12/04 02:45:32;;;;;;;42.17;20.17;;;;;;;-2.84;56.99;100895.22;4972456;28;96891;-72
2023/12/04 02:47:58;;;;;;;37.07;19.83;;;;;;;-2.90;57.49;100901.06;4969795;28;101543;-72
2023/12/04 02:50:24;;;;;;;44.50;20.83;;;;;;;-2.91;57.13;100906.13;4964474;28;99788;-73
2023/12/04 02:52:49;;;;;;;37.90;19.13;;;;;;;-2.91;57.34;100916.41;5007686;28;96827;-72
2023/12/04 02:55:15;;;;;;;39.27;19.53;;;;;;;-2.96;57.47;100894.03;4958214;28;97020;-72
2023/12/04 02:57:40;;;;;;;41.97;20.83;;;;;;;-2.81;56.49;100909.03;4972675;28;97461;-72
2023/12/04 03:00:06;;;;;;;38.53;19.67;;;;;;;-2.85;57.02;100906.31;4955465;28;100498;-72
2023/12/04 03:02:32;;;;;;;36.47;19.33;;;;;;;-2.82;56.44;100907.31;4974327;28;96788;-72
2023/12/04 03:04:57;;;;;;;38.10;20.53;;;;;;;-2.74;55.05;100907.50;4984750;28;96910;-72
2023/12/04 03:07:24;;;;;;;37.80;18.53;;;;;;;-2.76;55.43;100917.75;4972422;28;101144;-72
2023/12/04 03:09:49;;;;;;;33.67;18.37;;;;;;;-2.77;54.34;100921.13;4979827;28;97971;-72
2023/12/04 03:12:18;;;;;;;38.03;18.17;;;;;;;-2.72;54.52;100928.13;4957703;28;96747;-72
2023/12/04 03:14:44;;;;;;;39.90;19.40;;;;;;;-2.79;55.28;100924.50;4973762;28;96829;-72
2023/12/04 03:17:09;;;;;;;53.10;21.13;;;;;;;-2.91;55.72;100924.13;4979809;28;98574;-72
2023/12/04 03:19:35;;;;;;;43.17;20.33;;;;;;;-3.07;55.16;100921.09;4955127;28;101138;-72
2023/12/04 03:22:01;;;;;;;43.83;20.40;;;;;;;-3.20;55.94;100931.78;4979809;28;97262;-72
2023/12/04 03:24:26;;;;;;;45.23;21.27;;;;;;;-3.59;56.11;100932.28;4995270;28;97004;-72
2023/12/04 03:26:52;;;;;;;40.90;19.97;;;;;;;-3.84;56.99;100939.97;4957857;28;97845;-73
2023/12/04 03:29:18;;;;;;;40.87;22.03;;;;;;;-3.98;57.51;100936.94;4958095;28;97089;-72
2023/12/04 03:31:43;;;;;;;41.20;20.43;;;;;;;-4.21;58.30;100941.28;4966049;28;96786;-72
2023/12/04 03:34:09;;;;;;;40.73;19.63;;;;;;;-4.36;58.45;100927.09;4978356;28;96921;-74
2023/12/04 03:36:34;;;;;;;43.57;21.80;;;;;;;-4.34;58.47;100945.06;4965039;28;100058;-72
2023/12/04 03:39:00;;;;;;;39.93;19.93;;;;;;;-4.27;58.69;100956.44;4958154;28;101840;-72
2023/12/04 03:41:25;;;;;;;38.47;20.50;;;;;;;-4.17;58.44;100951.66;4973488;28;96711;-73
2023/12/04 03:43:51;;;;;;;40.47;20.03;;;;;;;-4.14;58.34;100943.22;4969365;28;96775;-72
2023/12/04 03:46:16;;;;;;;44.60;20.57;;;;;;;-4.20;58.69;100949.00;4955867;28;101061;-73
2023/12/04 03:48:42;;;;;;;43.97;20.83;;;;;;;-4.20;58.88;100937.88;4974135;28;97919;-71
2023/12/04 03:51:07;;;;;;;42.33;20.90;;;;;;;-4.08;58.71;100934.88;4974136;28;96757;-72
2023/12/04 03:53:33;;;;;;;41.77;20.17;;;;;;;-4.01;57.68;100935.16;4983905;28;96930;-72
2023/12/04 03:55:59;;;;;;;44.70;21.40;;;;;;;-3.96;57.02;100935.28;4976825;28;101194;-72
2023/12/04 03:58:24;;;;;;;45.43;21.50;;;;;;;-3.95;57.63;100930.22;4975079;28;97350;-71
2023/12/04 04:00:50;;;;;;;43.80;20.47;;;;;;;-4.06;56.39;100912.72;4957200;28;97873;-71
2023/12/04 04:03:15;;;;;;;51.53;21.73;;;;;;;-3.98;56.49;100926.69;4974153;28;97126;-71
2023/12/04 04:05:41;;;;;;;40.93;19.97;;;;;;;-4.36;56.59;100928.78;4974045;28;97550;-72
2023/12/04 04:08:07;;;;;;;44.50;20.67;;;;;;;-4.31;57.53;100924.66;4968649;28;98273;-72
2023/12/04 04:10:33;;;;;;;50.30;22.67;;;;;;;-4.60;57.85;100915.94;4968910;28;96790;-71
2023/12/04 04:12:59;;;;;;;50.40;23.30;;;;;;;-4.56;58.55;100925.50;4959829;28;96848;-71
2023/12/04 04:15:25;;;;;;;44.43;20.80;;;;;;;-4.66;58.74;100918.25;4975465;28;98116;-72
2023/12/04 04:17:51;;;;;;;46.90;22.03;;;;;;;-4.48;58.00;100910.38;4972941;28;97476;-72
2023/12/04 04:20:17;;;;;;;46.57;22.67;;;;;;;-4.43;58.60;100913.97;4972766;28;96713;-72
2023/12/04 04:22:42;;;;;;;46.93;22.87;;;;;;;-4.25;58.13;100913.75;4969067;28;96975;-72
2023/12/04 04:25:09;;;;;;;49.27;23.57;;;;;;;-4.21;58.08;100908.81;4979524;28;100901;-72
2023/12/04 04:27:34;;;;;;;39.70;20.17;;;;;;;-4.15;57.30;100911.56;4950124;28;97599;-72
2023/12/04 04:30:00;;;;;;;42.57;20.40;;;;;;;-4.13;57.38;100907.38;4977856;28;97243;-72
2023/12/04 04:32:25;;;;;;;45.20;21.03;;;;;;;-4.13;57.17;100907.38;4957305;28;98121;-72
2023/12/04 04:34:51;;;;;;;43.53;20.70;;;;;;;-4.15;57.57;100898.75;4953826;28;101355;-72
2023/12/04 04:37:16;;;;;;;45.23;20.93;;;;;;;-4.01;56.79;100901.81;4982037;28;100758;-72
2023/12/04 04:39:42;;;;;;;40.13;21.10;;;;;;;-4.02;56.86;100900.03;4940607;28;97122;-72
2023/12/04 04:42:07;;;;;;;43.83;21.33;;;;;;;-4.13;56.77;100889.44;4958075;28;97029;-72
2023/12/04 04:44:33;;;;;;;41.13;20.47;;;;;;;-4.24;57.60;100906.13;4978214;28;99251;-72
2023/12/04 04:46:59;;;;;;;44.80;21.27;;;;;;;-4.16;57.51;100898.69;4964837;28;101283;-72
2023/12/04 04:49:25;;;;;;;46.43;22.83;;;;;;;-4.20;56.56;100891.72;4964630;28;96776;-72
2023/12/04 04:51:50;;;;;;;45.03;21.23;;;;;;;-4.21;57.22;100900.25;4957291;28;97162;-72
2023/12/04 04:54:15;;;;;;;48.27;23.33;;;;;;;-4.43;57.49;100890.91;4942032;28;98339;-72
2023/12/04 04:56:41;;;;;;;40.17;20.30;;;;;;;-4.51;57.50;100898.31;5003465;28;97527;-72
2023/12/04 04:59:06;;;;;;;41.80;22.00;;;;;;;-4.85;58.31;100870.63;4980739;28;96925;-73
2023/12/04 05:01:32;;;;;;;44.30;22.27;;;;;;;-4.99;59.22;100882.03;4960638;28;96917;-72
2023/12/04 05:03:57;;;;;;;44.60;20.97;;;;;;;-5.05;59.75;100888.66;4953120;28;101029;-71
2023/12/04 05:06:23;;;;;;;41.77;21.47;;;;;;;-5.27;60.25;100880.97;4983625;28;101472;-72
2023/12/04 05:08:52;;;;;;;42.20;21.43;;;;;;;-5.17;60.45;100882.22;4982141;28;97275;-71
2023/12/04 05:11:17;;;;;;;42.77;22.20;;;;;;;-4.98;59.70;100884.63;4963683;28;96960;-72
2023/12/04 05:13:44;;;;;;;42.93;20.87;;;;;;;-4.95;59.12;100865.97;4963349;28;97320;-71
2023/12/04 05:16:10;;;;;;;45.17;21.67;;;;;;;-4.71;58.79;100874.56;4965675;28;101190;-71
2023/12/04 05:18:35;;;;;;;45.93;21.63;;;;;;;-4.67;58.22;100876.41;4980528;28;97413;-71
2023/12/04 05:21:01;;;;;;;42.97;22.27;;;;;;;-4.59;58.52;100872.44;4982792;28;96871;-71
2023/12/04 05:23:26;;;;;;;43.00;22.97;;;;;;;-4.41;57.17;100858.53;4979913;28;101628;-71
2023/12/04 05:25:52;;;;;;;46.43;21.10;;;;;;;-4.42;57.82;100855.09;4983682;28;101013;-71
2023/12/04 05:28:17;;;;;;;41.50;21.90;;;;;;;-4.40;57.33;100848.31;4984485;28;96948;-71
2023/12/04 05:30:43;;;;;;;40.40;20.07;;;;;;;-4.39;57.67;100857.78;4982903;28;98394;-71
2023/12/04 05:33:09;;;;;;;44.63;21.93;;;;;;;-4.44;57.90;100856.72;4982175;28;97499;-72
2023/12/04 05:35:36;;;;;;;44.03;21.73;;;;;;;-4.30;57.54;100872.59;4968920;28;99090;-73
2023/12/04 05:38:01;;;;;;;44.33;23.17;;;;;;;-4.35;57.45;100864.72;4962272;28;97840;-71
2023/12/04 05:40:27;;;;;;;43.33;22.80;;;;;;;-4.46;58.03;100840.41;4965362;28;97901;-72
2023/12/04 05:42:52;;;;;;;42.03;23.33;;;;;;;-4.41;58.07;100861.09;4962728;28;100458;-72
2023/12/04 05:45:18;;;;;;;42.87;24.47;;;;;;;-4.31;57.65;100858.00;4981409;28;97399;-72
2023/12/04 05:47:43;;;;;;;51.80;26.17;;;;;;;-4.33;56.65;100863.09;4979924;28;97071;-73
2023/12/04 05:50:09;;;;;;;47.43;23.70;;;;;;;-4.36;57.21;100859.56;4976896;28;97223;-72
2023/12/04 05:52:35;;;;;;;54.87;25.10;;;;;;;-4.32;56.63;100852.03;4943376;28;100843;-73
2023/12/04 05:55:00;;;;;;;54.60;25.53;;;;;;;-4.41;56.38;100853.41;4963710;28;97392;-72
2023/12/04 05:57:26;;;;;;;48.00;24.23;;;;;;;-4.79;58.08;100846.09;4965040;28;96785;-72
2023/12/04 05:59:51;;;;;;;53.00;26.23;;;;;;;-4.97;58.63;100848.00;4965194;28;98376;-73
2023/12/04 06:02:17;;;;;;;52.80;26.23;;;;;;;-5.05;58.52;100852.81;4993056;28;98081;-73
2023/12/04 06:04:42;;;;;;;46.97;24.73;;;;;;;-5.07;59.15;100851.88;4976439;28;98834;-74
2023/12/04 06:07:09;;;;;;;47.33;24.13;;;;;;;-4.81;59.02;100852.84;4964025;28;97521;-73
2023/12/04 06:09:36;;;;;;;51.67;25.30;;;;;;;-4.63;58.41;100854.31;4986997;28;96860;-75
2023/12/04 06:12:07;;;;;;;45.23;23.47;;;;;;;-4.61;57.69;100847.56;4967668;28;97642;-74
2023/12/04 06:14:33;;;;;;;52.87;25.20;;;;;;;-4.58;57.49;100855.38;4967751;28;100593;-77
2023/12/04 06:16:59;;;;;;;53.23;26.33;;;;;;;-4.81;57.80;100857.09;4947209;28;96749;-76
2023/12/04 06:19:24;;;;;;;56.53;26.30;;;;;;;-4.80;57.43;100856.25;4944452;28;96915;-76
2023/12/04 06:21:50;;;;;;;51.00;26.23;;;;;;;-4.64;57.30;100862.84;4961260;28;100040;-77
2023/12/04 06:24:16;;;;;;;56.30;27.30;;;;;;;-4.69;57.11;100862.66;4968283;28;98088;-76
2023/12/04 06:26:43;;;;;;;52.07;25.37;;;;;;;-4.59;55.87;100869.88;4989163;28;96653;-77
2023/12/04 06:29:08;;;;;;;54.03;25.67;;;;;;;-4.66;56.22;100867.88;4947522;28;96965;-76
2023/12/04 06:31:34;;;;;;;51.07;24.93;;;;;;;-4.71;56.65;100859.19;4976091;28;97370;-77
2023/12/04 06:34:01;;;;;;;59.63;27.07;;;;;;;-4.73;54.90;100852.25;4961103;28;100782;-77
2023/12/04 06:36:38;;;;;;;54.40;26.27;;;;;;;-4.83;54.89;100846.81;4981405;28;96607;-76
2023/12/04 06:39:08;;;;;;;55.00;26.13;;;;;;;-4.99;54.97;100857.28;4963463;28;97180;-77
2023/12/04 06:41:34;;;;;;;62.33;29.07;;;;;;;-4.98;55.21;100855.59;4988136;28;99057;-76
2023/12/04 06:44:00;;;;;;;61.93;29.80;;;;;;;-4.98;54.66;100846.22;4979690;28;97837;-76
2023/12/04 06:46:28;;;;;;;58.53;25.73;;;;;;;-5.57;55.19;100852.50;4965572;28;97140;-76
2023/12/04 06:48:57;;;;;;;61.63;28.90;;;;;;;-5.51;55.32;100845.06;4982335;28;97347;-75
2023/12/04 06:51:22;;;;;;;56.90;26.57;;;;;;;-5.27;55.52;100855.38;4974497;28;97814;-71
2023/12/04 06:53:48;;;;;;;60.17;26.77;;;;;;;-5.51;54.67;100845.94;4975449;28;97966;-74
2023/12/04 06:56:13;;;;;;;60.10;28.80;;;;;;;-5.57;55.63;100848.25;4977392;28;96856;-74
2023/12/04 06:58:39;;;;;;;65.40;30.10;;;;;;;-5.79;55.79;100853.31;4972385;28;97619;-78
2023/12/04 07:01:04;;;;;;;61.63;28.57;;;;;;;-5.75;56.22;100850.09;5011270;28;96916;-79
2023/12/04 07:03:30;;;;;;;67.97;32.57;;;;;;;-5.72;56.00;100857.88;4967144;28;101634;-80
2023/12/04 07:05:55;;;;;;;72.93;32.07;;;;;;;-5.88;55.61;100851.25;4990977;28;96796;-77
2023/12/04 07:08:21;;;;;;;73.57;32.70;;;;;;;-5.95;55.60;100851.88;4975988;28;96623;-81
2023/12/04 07:10:46;;;;;;;66.93;31.77;;;;;;;-5.70;55.61;100858.84;5007020;28;100781;-81
2023/12/04 07:13:13;;;;;;;71.20;33.10;;;;;;;-5.59;55.50;100865.22;4978934;28;100428;-80
2023/12/04 07:15:44;;;;;;;67.00;32.37;;;;;;;-5.69;55.22;100847.78;5008504;28;96598;-79
2023/12/04 07:18:09;;;;;;;75.50;36.07;;;;;;;-5.87;55.73;100863.25;4970232;28;96762;-79
2023/12/04 07:20:34;;;;;;;68.87;32.93;;;;;;;-5.69;56.07;100869.09;5001652;28;96693;-79
2023/12/04 07:23:00;;;;;;;69.67;32.77;;;;;;;-5.59;55.64;100864.34;4945874;28;97980;-79
2023/12/04 07:25:25;;;;;;;64.47;29.43;;;;;;;-5.42;55.80;100863.31;4950383;28;99267;-80
2023/12/04 07:31:44;;;;;;;78.70;34.00;;;;;;;-5.33;56.44;100871.34;4980495;28;96659;-78
2023/12/04 07:35:06;;;;;;;65.40;30.48;;;;;;;-5.21;56.56;100872.66;4968897;28;101168;-79
2023/12/04 07:37:32;;;;;;;67.73;29.90;;;;;;;-4.90;55.83;100864.44;5006987;28;96828;-79
2023/12/04 07:39:57;;;;;;;62.23;28.50;;;;;;;-4.79;56.05;100861.47;4995022;28;97408;-79
2023/12/04 07:42:23;;;;;;;66.17;29.87;;;;;;;-4.48;55.75;100869.38;4968477;28;101313;-79
2023/12/04 07:44:49;;;;;;;68.47;31.00;;;;;;;-4.18;55.34;100855.06;4975147;28;101276;-79
2023/12/04 07:47:15;;;;;;;62.27;29.93;;;;;;;-4.00;55.17;100848.81;4959959;28;96861;-79
2023/12/04 07:49:41;;;;;;;63.97;29.77;;;;;;;-3.84;55.58;100848.47;4955988;28;98184;-77
2023/12/04 07:52:07;;;;;;;63.23;30.47;;;;;;;-3.37;54.71;100855.94;4970453;28;97483;-77
2023/12/04 07:54:33;;;;;;;64.13;30.47;;;;;;;-3.43;54.52;100851.50;4961170;28;101177;-80
2023/12/04 07:56:59;;;;;;;60.23;31.03;;;;;;;-2.77;53.30;100843.16;4968751;28;96856;-78
2023/12/04 07:59:25;;;;;;;56.67;29.43;;;;;;;-2.56;53.47;100833.50;4962371;28;97539;-78
2023/12/04 08:01:51;;;;;;;57.40;30.00;;;;;;;-2.28;52.79;100847.09;4959863;28;101193;-78
2023/12/04 08:04:16;;;;;;;63.90;28.97;;;;;;;-2.11;52.06;100825.25;4956929;28;97463;-77
2023/12/04 08:06:42;;;;;;;62.60;31.23;;;;;;;-1.98;52.62;100839.28;4998480;28;96765;-78
2023/12/04 08:09:09;;;;;;;56.63;29.07;;;;;;;-1.77;52.42;100841.53;4965218;28;97016;-78
2023/12/04 08:11:36;;;;;;;59.40;30.37;;;;;;;-1.73;51.94;100827.88;4977237;28;97505;-78
2023/12/04 08:14:01;;;;;;;59.00;28.60;;;;;;;-1.80;52.56;100813.16;4944793;28;98260;-79
2023/12/04 08:16:28;;;;;;;58.27;31.70;;;;;;;-1.30;51.99;100826.31;4971380;28;96864;-79
2023/12/04 08:18:54;;;;;;;52.27;27.57;;;;;;;-1.35;52.26;100833.06;4976591;28;96915;-79
2023/12/04 08:21:20;;;;;;;56.13;26.97;;;;;;;-1.18;52.33;100829.16;4979861;28;100805;-76
2023/12/04 08:23:46;;;;;;;59.93;28.83;;;;;;;-0.71;51.65;100815.50;4976204;28;97580;-74
2023/12/04 08:26:11;;;;;;;53.27;29.40;;;;;;;-0.27;51.23;100818.91;4960595;28;96905;-74
2023/12/04 08:28:41;;;;;;;53.47;27.63;;;;;;;-0.32;51.20;100824.81;4968962;28;97583;-75
2023/12/04 08:31:08;;;;;;;54.97;26.57;;;;;;;0.05;50.67;100820.31;4975598;28;98012;-75
2023/12/04 08:33:34;;;;;;;48.73;25.07;;;;;;;0.67;50.32;100825.59;4961921;28;97842;-73
2023/12/04 08:36:00;;;;;;;53.03;28.10;;;;;;;0.72;49.56;100829.09;4956788;28;98321;-73
2023/12/04 08:38:26;;;;;;;55.07;28.27;;;;;;;1.01;49.09;100813.97;4970729;28;97083;-73
2023/12/04 08:40:51;;;;;;;60.47;29.43;;;;;;;1.19;49.35;100818.50;4973860;28;101162;-73
2023/12/04 08:43:18;;;;;;;48.93;25.90;;;;;;;1.35;48.80;100820.44;4959468;28;98620;-74
2023/12/04 08:45:45;;;;;;;56.90;28.93;;;;;;;1.55;48.48;100828.41;4953331;28;98297;-74
2023/12/04 08:48:10;;;;;;;59.40;29.47;;;;;;;1.91;47.86;100821.00;4954162;28;96929;-74
2023/12/04 08:50:37;;;;;;;57.93;29.57;;;;;;;2.12;47.99;100807.38;4971391;28;97291;-73
2023/12/04 08:53:04;;;;;;;54.07;26.77;;;;;;;2.31;46.85;100796.31;4955081;28;97805;-73
2023/12/04 08:55:29;;;;;;;50.77;26.97;;;;;;;2.22;47.02;100794.50;4931889;28;96695;-73
2023/12/04 08:57:55;;;;;;;51.27;28.67;;;;;;;2.07;47.43;100793.53;4959834;28;96839;-74
2023/12/04 09:00:20;;;;;;;46.87;25.60;;;;;;;2.25;46.73;100794.53;4965701;28;97398;-74
2023/12/04 09:02:48;;;;;;;48.33;26.20;;;;;;;2.06;46.78;100802.13;4954927;28;97365;-74
2023/12/04 09:05:13;;;;;;;46.00;26.00;;;;;;;2.42;46.56;100794.66;4957826;28;97385;-73
2023/12/04 09:07:39;;;;;;;43.97;24.50;;;;;;;2.19;46.82;100804.00;4957029;28;97550;-74
2023/12/04 09:10:05;;;;;;;47.03;25.07;;;;;;;2.05;47.63;100806.47;4974004;28;97955;-73
2023/12/04 09:12:30;;;;;;;50.20;25.50;;;;;;;1.96;46.89;100790.84;4954798;28;101828;-73
2023/12/04 09:14:56;;;;;;;49.47;26.33;;;;;;;2.25;47.06;100809.22;4966409;28;97520;-74
2023/12/04 09:17:21;;;;;;;47.57;26.20;;;;;;;2.34;46.58;100803.22;4958566;28;97515;-74
2023/12/04 09:19:47;;;;;;;46.60;24.13;;;;;;;2.34;46.20;100806.69;4966423;28;97955;-74
2023/12/04 09:22:12;;;;;;;50.07;27.03;;;;;;;2.29;46.26;100794.56;4964115;28;101197;-74
2023/12/04 09:24:38;;;;;;;48.00;25.70;;;;;;;2.39;46.24;100802.41;4965231;28;96812;-73
2023/12/04 09:27:03;;;;;;;40.67;22.93;;;;;;;2.33;46.19;100804.06;4988817;28;98770;-73
2023/12/04 09:29:29;;;;;;;44.27;25.93;;;;;;;1.95;47.03;100807.22;4982987;28;101587;-73
2023/12/04 09:31:54;;;;;;;44.83;25.13;;;;;;;1.37;48.09;100799.78;4976630;28;99424;-74
2023/12/04 09:34:20;;;;;;;46.43;26.70;;;;;;;1.47;48.59;100808.47;4982129;28;97460;-73
2023/12/04 09:36:49;;;;;;;47.93;26.47;;;;;;;1.30;48.50;100792.78;4956380;28;97432;-74
2023/12/04 09:39:15;;;;;;;50.77;25.73;;;;;;;1.31;48.38;100791.94;4963055;28;97607;-74
2023/12/04 09:41:42;;;;;;;46.67;25.67;;;;;;;1.85;48.25;100788.16;4981151;28;101594;-73
2023/12/04 09:44:08;;;;;;;48.60;25.77;;;;;;;1.86;47.74;100773.47;4968676;28;97378;-73
2023/12/04 09:46:34;;;;;;;51.57;27.00;;;;;;;1.32;47.98;100776.41;4954486;28;97235;-73
2023/12/04 09:49:00;;;;;;;49.33;25.33;;;;;;;0.92;49.46;100774.22;4923495;28;101405;-76
2023/12/04 09:51:27;;;;;;;42.23;23.97;;;;;;;1.15;48.82;100765.03;4951511;28;101028;-73
2023/12/04 09:53:55;;;;;;;46.07;25.23;;;;;;;1.04;49.93;100758.84;4965673;28;96898;-77
2023/12/04 09:56:22;;;;;;;45.33;26.13;;;;;;;1.04;49.45;100751.09;4978094;28;96986;-78
2023/12/04 09:58:52;;;;;;;41.80;23.27;;;;;;;0.99;49.54;100745.88;4963715;28;97788;-78
2023/12/04 10:01:18;;;;;;;48.67;25.90;;;;;;;0.87;50.93;100745.72;4963188;28;97401;-79
2023/12/04 10:03:44;;;;;;;49.70;27.47;;;;;;;0.93;50.34;100717.34;4970546;28;97322;-77
2023/12/04 10:06:12;;;;;;;47.47;25.53;;;;;;;0.72;51.00;100738.63;4954621;28;96951;-78
2023/12/04 10:08:37;;;;;;;53.20;26.67;;;;;;;0.91;50.54;100726.81;4979778;28;101572;-75
2023/12/04 10:11:03;;;;;;;50.63;28.23;;;;;;;0.38;51.20;100709.81;4951999;28;101149;-70
2023/12/04 10:13:28;;;;;;;46.83;26.83;;;;;;;0.49;52.05;100724.56;4947829;28;97591;-70
2023/12/04 10:15:54;;;;;;;52.93;27.37;;;;;;;0.38;52.03;100720.13;4969026;28;96874;-70
2023/12/04 10:18:30;;;;;;;44.30;25.23;;;;;;;0.31;52.04;100707.09;4970329;28;97007;-71
2023/12/04 10:20:56;;;;;;;44.47;24.57;;;;;;;0.52;51.55;100701.34;4947724;28;101243;-71
2023/12/04 10:23:23;;;;;;;49.00;25.90;;;;;;;0.16;51.98;100706.03;4971290;28;96808;-71
2023/12/04 10:25:52;;;;;;;51.43;25.53;;;;;;;0.27;52.53;100719.09;4969395;28;97389;-72
2023/12/04 10:28:18;;;;;;;52.33;27.37;;;;;;;0.37;52.01;100712.34;4949684;28;102150;-71
2023/12/04 10:30:45;;;;;;;50.83;28.13;;;;;;;0.23;52.19;100712.16;4960263;28;97783;-70
2023/12/04 10:33:11;;;;;;;58.10;27.70;;;;;;;0.09;53.11;100701.66;4957288;28;98314;-72
2023/12/04 10:35:36;;;;;;;53.63;25.53;;;;;;;0.17;52.51;100712.06;4964881;28;98672;-72
2023/12/04 10:38:03;;;;;;;53.17;26.20;;;;;;;0.11;53.22;100693.91;4952243;28;101177;-72
2023/12/04 10:40:31;;;;;;;47.73;24.37;;;;;;;0.31;53.17;100709.69;4967842;28;97552;-71
2023/12/04 10:43:09;;;;;;;46.83;24.37;;;;;;;0.24;52.81;100698.41;4959178;28;97504;-71
2023/12/04 10:45:39;;;;;;;49.53;24.87;;;;;;;-0.11;53.42;100703.06;4959690;28;97964;-70
2023/12/04 10:48:05;;;;;;;53.30;27.90;;;;;;;-0.01;53.69;100702.34;4960791;28;101347;-71
2023/12/04 10:50:35;;;;;;;45.93;24.47;;;;;;;0.19;53.43;100702.63;4964564;28;97924;-70
2023/12/04 10:53:05;;;;;;;50.30;26.53;;;;;;;0.17;53.82;100697.44;4937637;28;96784;-70
2023/12/04 10:55:31;;;;;;;44.67;25.03;;;;;;;-0.01;53.69;100698.03;4940477;28;98711;-75
2023/12/04 10:57:58;;;;;;;48.07;26.40;;;;;;;0.13;53.90;100699.97;4982665;28;97606;-73
2023/12/04 11:00:24;;;;;;;55.37;27.17;;;;;;;0.43;53.23;100694.34;4942311;28;101088;-73
2023/12/04 11:02:49;;;;;;;49.27;24.80;;;;;;;0.40;53.50;100694.31;4966594;28;96812;-75
2023/12/04 11:05:21;;;;;;;42.57;22.80;;;;;;;0.32;53.45;100690.75;4966879;28;97057;-74
2023/12/04 11:08:06;;;;;;;51.38;24.60;;;;;;;0.39;53.09;100690.88;4947125;28;101820;-80